sensor_id;sensor_type;location;lat;lon;timestamp;P1;durP1;ratioP1;P2;durP2;ratioP2
12429;SDS011;6279;42.192;24.326;2023-02-26T00:02:11;13.73;;;8.57;;
12429;SDS011;6279;42.192;24.326;2023-02-26T00:04:36;16.70;;;8.90;;
12429;SDS011;6279;42.192;24.326;2023-02-26T00:07:02;21.87;;;9.53;;
12429;SDS011;6279;42.192;24.326;2023-02-26T00:09:29;15.97;;;9.50;;
12429;SDS011;6279;42.192;24.326;2023-02-26T00:11:56;23.33;;;9.77;;
12429;SDS011;6279;42.192;24.326;2023-02-26T00:14:22;22.47;;;10.30;;
12429;SDS011;6279;42.192;24.326;2023-02-26T00:16:55;21.80;;;10.87;;
12429;SDS011;6279;42.192;24.326;2023-02-26T00:19:32;24.37;;;11.10;;
12429;SDS011;6279;42.192;24.326;2023-02-26T00:21:58;22.67;;;10.43;;
12429;SDS011;6279;42.192;24.326;2023-02-26T00:24:23;19.07;;;10.33;;
12429;SDS011;6279;42.192;24.326;2023-02-26T00:26:48;21.70;;;10.73;;
12429;SDS011;6279;42.192;24.326;2023-02-26T00:29:14;20.10;;;9.97;;
12429;SDS011;6279;42.192;24.326;2023-02-26T00:31:40;18.37;;;7.97;;
12429;SDS011;6279;42.192;24.326;2023-02-26T00:34:05;21.87;;;9.17;;
12429;SDS011;6279;42.192;24.326;2023-02-26T00:39:22;17.93;;;11.03;;
12429;SDS011;6279;42.192;24.326;2023-02-26T00:41:53;19.07;;;8.10;;
12429;SDS011;6279;42.192;24.326;2023-02-26T00:44:19;21.57;;;10.23;;
12429;SDS011;6279;42.192;24.326;2023-02-26T00:46:53;15.50;;;6.60;;
12429;SDS011;6279;42.192;24.326;2023-02-26T00:49:29;10.40;;;5.50;;
12429;SDS011;6279;42.192;24.326;2023-02-26T00:52:00;13.57;;;5.37;;
12429;SDS011;6279;42.192;24.326;2023-02-26T00:54:29;9.23;;;5.00;;
12429;SDS011;6279;42.192;24.326;2023-02-26T00:56:56;12.53;;;5.17;;
12429;SDS011;6279;42.192;24.326;2023-02-26T00:59:23;10.50;;;5.13;;
12429;SDS011;6279;42.192;24.326;2023-02-26T01:01:49;12.97;;;6.00;;
12429;SDS011;6279;42.192;24.326;2023-02-26T01:04:16;11.07;;;5.47;;
12429;SDS011;6279;42.192;24.326;2023-02-26T01:06:44;16.53;;;4.63;;
12429;SDS011;6279;42.192;24.326;2023-02-26T01:09:17;12.30;;;5.27;;
12429;SDS011;6279;42.192;24.326;2023-02-26T01:11:51;16.60;;;4.67;;
12429;SDS011;6279;42.192;24.326;2023-02-26T01:14:18;12.80;;;5.20;;
12429;SDS011;6279;42.192;24.326;2023-02-26T01:19:30;15.50;;;6.47;;
12429;SDS011;6279;42.192;24.326;2023-02-26T01:22:13;16.10;;;5.17;;
12429;SDS011;6279;42.192;24.326;2023-02-26T01:24:43;12.53;;;5.37;;
12429;SDS011;6279;42.192;24.326;2023-02-26T01:27:11;13.40;;;6.13;;
12429;SDS011;6279;42.192;24.326;2023-02-26T01:29:37;15.30;;;5.87;;
12429;SDS011;6279;42.192;24.326;2023-02-26T01:32:07;15.30;;;6.07;;
12429;SDS011;6279;42.192;24.326;2023-02-26T01:34:41;16.63;;;8.30;;
12429;SDS011;6279;42.192;24.326;2023-02-26T01:39:47;20.60;;;7.90;;
12429;SDS011;6279;42.192;24.326;2023-02-26T01:42:24;18.30;;;9.47;;
12429;SDS011;6279;42.192;24.326;2023-02-26T01:50:12;22.33;;;10.73;;
12429;SDS011;6279;42.192;24.326;2023-02-26T01:55:11;20.97;;;10.73;;
12429;SDS011;6279;42.192;24.326;2023-02-26T01:57:38;24.17;;;10.93;;
12429;SDS011;6279;42.192;24.326;2023-02-26T02:00:04;22.17;;;10.60;;
12429;SDS011;6279;42.192;24.326;2023-02-26T02:02:30;18.63;;;10.60;;
12429;SDS011;6279;42.192;24.326;2023-02-26T02:04:56;17.43;;;10.10;;
12429;SDS011;6279;42.192;24.326;2023-02-26T02:07:25;18.53;;;9.20;;
12429;SDS011;6279;42.192;24.326;2023-02-26T02:09:51;19.07;;;9.93;;
12429;SDS011;6279;42.192;24.326;2023-02-26T02:17:49;17.93;;;9.90;;
12429;SDS011;6279;42.192;24.326;2023-02-26T02:36:18;23.43;;;11.07;;
12429;SDS011;6279;42.192;24.326;2023-02-26T02:38:50;15.90;;;8.70;;
12429;SDS011;6279;42.192;24.326;2023-02-26T02:41:48;16.07;;;7.27;;
12429;SDS011;6279;42.192;24.326;2023-02-26T02:44:18;12.63;;;5.53;;
12429;SDS011;6279;42.192;24.326;2023-02-26T02:46:47;15.63;;;4.87;;
12429;SDS011;6279;42.192;24.326;2023-02-26T02:49:17;8.67;;;3.77;;
12429;SDS011;6279;42.192;24.326;2023-02-26T02:51:58;11.60;;;3.57;;
12429;SDS011;6279;42.192;24.326;2023-02-26T02:54:32;9.27;;;3.20;;
12429;SDS011;6279;42.192;24.326;2023-02-26T02:57:11;11.07;;;3.50;;
12429;SDS011;6279;42.192;24.326;2023-02-26T02:59:43;15.50;;;3.90;;
12429;SDS011;6279;42.192;24.326;2023-02-26T03:02:25;10.97;;;3.37;;
12429;SDS011;6279;42.192;24.326;2023-02-26T03:04:58;9.80;;;3.53;;
12429;SDS011;6279;42.192;24.326;2023-02-26T03:07:23;12.33;;;3.03;;
12429;SDS011;6279;42.192;24.326;2023-02-26T03:09:49;11.27;;;3.47;;
12429;SDS011;6279;42.192;24.326;2023-02-26T03:12:14;9.17;;;2.93;;
12429;SDS011;6279;42.192;24.326;2023-02-26T03:14:40;15.20;;;4.13;;
12429;SDS011;6279;42.192;24.326;2023-02-26T03:23:00;10.90;;;3.20;;
12429;SDS011;6279;42.192;24.326;2023-02-26T03:33:31;14.30;;;3.27;;
12429;SDS011;6279;42.192;24.326;2023-02-26T03:41:44;14.57;;;3.90;;
12429;SDS011;6279;42.192;24.326;2023-02-26T03:47:11;14.27;;;3.80;;
12429;SDS011;6279;42.192;24.326;2023-02-26T03:49:44;18.20;;;3.77;;
12429;SDS011;6279;42.192;24.326;2023-02-26T03:52:13;18.00;;;3.80;;
12429;SDS011;6279;42.192;24.326;2023-02-26T03:54:44;15.00;;;3.77;;
12429;SDS011;6279;42.192;24.326;2023-02-26T03:57:14;16.43;;;3.73;;
12429;SDS011;6279;42.192;24.326;2023-02-26T03:59:40;20.10;;;4.37;;
12429;SDS011;6279;42.192;24.326;2023-02-26T04:02:10;15.37;;;3.53;;
12429;SDS011;6279;42.192;24.326;2023-02-26T04:04:46;11.83;;;4.00;;
12429;SDS011;6279;42.192;24.326;2023-02-26T04:07:18;16.93;;;4.00;;
12429;SDS011;6279;42.192;24.326;2023-02-26T04:09:45;15.57;;;4.50;;
12429;SDS011;6279;42.192;24.326;2023-02-26T04:12:12;15.37;;;3.50;;
12429;SDS011;6279;42.192;24.326;2023-02-26T04:14:38;11.67;;;3.90;;
12429;SDS011;6279;42.192;24.326;2023-02-26T04:17:04;16.63;;;3.97;;
12429;SDS011;6279;42.192;24.326;2023-02-26T04:19:30;17.03;;;4.13;;
12429;SDS011;6279;42.192;24.326;2023-02-26T04:21:55;10.90;;;3.73;;
12429;SDS011;6279;42.192;24.326;2023-02-26T04:24:20;14.93;;;4.17;;
12429;SDS011;6279;42.192;24.326;2023-02-26T04:26:46;11.90;;;3.53;;
12429;SDS011;6279;42.192;24.326;2023-02-26T04:29:11;13.77;;;3.67;;
12429;SDS011;6279;42.192;24.326;2023-02-26T04:31:37;15.57;;;4.43;;
12429;SDS011;6279;42.192;24.326;2023-02-26T04:34:02;14.93;;;4.07;;
12429;SDS011;6279;42.192;24.326;2023-02-26T04:36:28;16.60;;;3.93;;
12429;SDS011;6279;42.192;24.326;2023-02-26T04:38:54;19.50;;;4.20;;
12429;SDS011;6279;42.192;24.326;2023-02-26T04:41:19;18.07;;;4.27;;
12429;SDS011;6279;42.192;24.326;2023-02-26T04:43:45;10.80;;;3.20;;
12429;SDS011;6279;42.192;24.326;2023-02-26T04:46:11;12.00;;;3.00;;
12429;SDS011;6279;42.192;24.326;2023-02-26T04:48:36;11.77;;;4.50;;
12429;SDS011;6279;42.192;24.326;2023-02-26T04:51:01;20.33;;;4.60;;
12429;SDS011;6279;42.192;24.326;2023-02-26T04:53:27;13.60;;;4.50;;
12429;SDS011;6279;42.192;24.326;2023-02-26T04:55:52;13.73;;;3.40;;
12429;SDS011;6279;42.192;24.326;2023-02-26T04:58:18;14.77;;;4.47;;
12429;SDS011;6279;42.192;24.326;2023-02-26T05:00:46;16.63;;;5.33;;
12429;SDS011;6279;42.192;24.326;2023-02-26T05:03:12;13.90;;;3.83;;
12429;SDS011;6279;42.192;24.326;2023-02-26T05:05:38;14.47;;;3.30;;
12429;SDS011;6279;42.192;24.326;2023-02-26T05:08:03;14.37;;;4.10;;
12429;SDS011;6279;42.192;24.326;2023-02-26T05:10:29;11.90;;;3.83;;
12429;SDS011;6279;42.192;24.326;2023-02-26T05:12:54;16.57;;;4.10;;
12429;SDS011;6279;42.192;24.326;2023-02-26T05:15:19;11.13;;;3.43;;
12429;SDS011;6279;42.192;24.326;2023-02-26T05:17:45;15.93;;;3.00;;
12429;SDS011;6279;42.192;24.326;2023-02-26T05:20:11;15.80;;;4.43;;
12429;SDS011;6279;42.192;24.326;2023-02-26T05:22:37;12.63;;;3.70;;
12429;SDS011;6279;42.192;24.326;2023-02-26T05:25:03;10.53;;;3.73;;
12429;SDS011;6279;42.192;24.326;2023-02-26T05:27:30;14.27;;;3.70;;
12429;SDS011;6279;42.192;24.326;2023-02-26T05:29:55;13.40;;;3.87;;
12429;SDS011;6279;42.192;24.326;2023-02-26T05:32:21;18.57;;;4.07;;
12429;SDS011;6279;42.192;24.326;2023-02-26T05:34:46;11.57;;;3.10;;
12429;SDS011;6279;42.192;24.326;2023-02-26T05:37:12;16.90;;;4.30;;
12429;SDS011;6279;42.192;24.326;2023-02-26T05:39:37;16.53;;;3.87;;
12429;SDS011;6279;42.192;24.326;2023-02-26T05:42:05;14.50;;;4.63;;
12429;SDS011;6279;42.192;24.326;2023-02-26T05:44:30;14.97;;;4.77;;
12429;SDS011;6279;42.192;24.326;2023-02-26T05:46:55;17.00;;;4.60;;
12429;SDS011;6279;42.192;24.326;2023-02-26T05:49:21;13.17;;;4.17;;
12429;SDS011;6279;42.192;24.326;2023-02-26T05:51:46;14.17;;;4.60;;
12429;SDS011;6279;42.192;24.326;2023-02-26T05:54:12;14.97;;;3.90;;
12429;SDS011;6279;42.192;24.326;2023-02-26T05:56:37;16.47;;;4.63;;
12429;SDS011;6279;42.192;24.326;2023-02-26T05:59:02;20.60;;;4.70;;
12429;SDS011;6279;42.192;24.326;2023-02-26T06:01:28;18.43;;;4.20;;
12429;SDS011;6279;42.192;24.326;2023-02-26T06:03:53;15.27;;;3.90;;
12429;SDS011;6279;42.192;24.326;2023-02-26T06:06:19;15.80;;;3.37;;
12429;SDS011;6279;42.192;24.326;2023-02-26T06:08:45;14.73;;;4.17;;
12429;SDS011;6279;42.192;24.326;2023-02-26T06:11:11;8.83;;;3.47;;
12429;SDS011;6279;42.192;24.326;2023-02-26T06:13:37;13.43;;;3.90;;
12429;SDS011;6279;42.192;24.326;2023-02-26T06:16:03;15.97;;;3.67;;
12429;SDS011;6279;42.192;24.326;2023-02-26T06:18:28;12.03;;;3.70;;
12429;SDS011;6279;42.192;24.326;2023-02-26T06:20:54;12.47;;;3.40;;
12429;SDS011;6279;42.192;24.326;2023-02-26T06:23:19;15.30;;;4.13;;
12429;SDS011;6279;42.192;24.326;2023-02-26T06:25:45;10.70;;;3.93;;
12429;SDS011;6279;42.192;24.326;2023-02-26T06:28:10;9.83;;;3.30;;
12429;SDS011;6279;42.192;24.326;2023-02-26T06:30:35;14.20;;;4.53;;
12429;SDS011;6279;42.192;24.326;2023-02-26T06:33:01;14.57;;;8.57;;
12429;SDS011;6279;42.192;24.326;2023-02-26T06:35:26;16.97;;;9.00;;
12429;SDS011;6279;42.192;24.326;2023-02-26T06:37:55;16.87;;;6.23;;
12429;SDS011;6279;42.192;24.326;2023-02-26T06:40:21;16.47;;;5.73;;
12429;SDS011;6279;42.192;24.326;2023-02-26T06:42:46;13.20;;;4.33;;
12429;SDS011;6279;42.192;24.326;2023-02-26T06:45:12;15.00;;;6.60;;
12429;SDS011;6279;42.192;24.326;2023-02-26T06:47:37;21.03;;;4.23;;
12429;SDS011;6279;42.192;24.326;2023-02-26T06:50:02;21.07;;;5.07;;
12429;SDS011;6279;42.192;24.326;2023-02-26T06:52:29;11.57;;;3.93;;
12429;SDS011;6279;42.192;24.326;2023-02-26T06:54:54;18.83;;;4.30;;
12429;SDS011;6279;42.192;24.326;2023-02-26T06:57:20;9.13;;;3.20;;
12429;SDS011;6279;42.192;24.326;2023-02-26T06:59:45;10.87;;;3.93;;
12429;SDS011;6279;42.192;24.326;2023-02-26T07:02:17;16.67;;;4.10;;
12429;SDS011;6279;42.192;24.326;2023-02-26T07:04:44;16.10;;;5.07;;
12429;SDS011;6279;42.192;24.326;2023-02-26T07:07:09;11.23;;;3.93;;
12429;SDS011;6279;42.192;24.326;2023-02-26T07:09:35;14.63;;;4.17;;
12429;SDS011;6279;42.192;24.326;2023-02-26T07:12:00;18.43;;;4.00;;
12429;SDS011;6279;42.192;24.326;2023-02-26T07:14:25;18.23;;;4.63;;
12429;SDS011;6279;42.192;24.326;2023-02-26T07:16:51;20.07;;;4.37;;
12429;SDS011;6279;42.192;24.326;2023-02-26T07:19:17;14.13;;;3.93;;
12429;SDS011;6279;42.192;24.326;2023-02-26T07:21:42;19.87;;;6.03;;
12429;SDS011;6279;42.192;24.326;2023-02-26T07:24:08;16.47;;;4.40;;
12429;SDS011;6279;42.192;24.326;2023-02-26T07:26:33;10.20;;;3.93;;
12429;SDS011;6279;42.192;24.326;2023-02-26T07:28:59;17.50;;;4.10;;
12429;SDS011;6279;42.192;24.326;2023-02-26T07:31:24;21.70;;;4.27;;
12429;SDS011;6279;42.192;24.326;2023-02-26T07:33:50;14.87;;;4.07;;
12429;SDS011;6279;42.192;24.326;2023-02-26T07:36:15;13.90;;;3.90;;
12429;SDS011;6279;42.192;24.326;2023-02-26T07:38:41;24.87;;;7.17;;
12429;SDS011;6279;42.192;24.326;2023-02-26T07:41:06;16.50;;;4.63;;
12429;SDS011;6279;42.192;24.326;2023-02-26T07:43:31;12.77;;;4.70;;
12429;SDS011;6279;42.192;24.326;2023-02-26T07:45:57;19.57;;;7.43;;
12429;SDS011;6279;42.192;24.326;2023-02-26T07:48:22;14.93;;;4.20;;
12429;SDS011;6279;42.192;24.326;2023-02-26T07:50:50;16.93;;;4.27;;
12429;SDS011;6279;42.192;24.326;2023-02-26T07:53:17;21.03;;;4.53;;
12429;SDS011;6279;42.192;24.326;2023-02-26T07:55:42;16.73;;;3.80;;
12429;SDS011;6279;42.192;24.326;2023-02-26T07:58:07;6.50;;;3.13;;
12429;SDS011;6279;42.192;24.326;2023-02-26T08:00:33;18.33;;;4.53;;
12429;SDS011;6279;42.192;24.326;2023-02-26T08:02:58;13.97;;;4.60;;
12429;SDS011;6279;42.192;24.326;2023-02-26T08:05:24;14.40;;;3.70;;
12429;SDS011;6279;42.192;24.326;2023-02-26T08:07:49;12.53;;;3.87;;
12429;SDS011;6279;42.192;24.326;2023-02-26T08:10:14;21.03;;;13.27;;
12429;SDS011;6279;42.192;24.326;2023-02-26T08:12:41;15.83;;;5.13;;
12429;SDS011;6279;42.192;24.326;2023-02-26T08:15:06;33.10;;;5.43;;
12429;SDS011;6279;42.192;24.326;2023-02-26T08:17:32;13.07;;;4.47;;
12429;SDS011;6279;42.192;24.326;2023-02-26T08:19:58;23.20;;;4.80;;
12429;SDS011;6279;42.192;24.326;2023-02-26T08:22:23;11.17;;;3.80;;
12429;SDS011;6279;42.192;24.326;2023-02-26T08:24:49;17.33;;;4.50;;
12429;SDS011;6279;42.192;24.326;2023-02-26T08:27:14;16.60;;;5.23;;
12429;SDS011;6279;42.192;24.326;2023-02-26T08:29:40;15.07;;;4.50;;
12429;SDS011;6279;42.192;24.326;2023-02-26T08:32:06;14.13;;;4.07;;
12429;SDS011;6279;42.192;24.326;2023-02-26T08:34:32;24.13;;;4.33;;
12429;SDS011;6279;42.192;24.326;2023-02-26T08:36:57;34.20;;;5.30;;
12429;SDS011;6279;42.192;24.326;2023-02-26T08:39:23;18.00;;;4.43;;
12429;SDS011;6279;42.192;24.326;2023-02-26T08:41:48;15.77;;;4.17;;
12429;SDS011;6279;42.192;24.326;2023-02-26T08:44:14;26.53;;;5.47;;
12429;SDS011;6279;42.192;24.326;2023-02-26T08:46:39;21.93;;;5.03;;
12429;SDS011;6279;42.192;24.326;2023-02-26T08:49:04;20.20;;;4.37;;
12429;SDS011;6279;42.192;24.326;2023-02-26T08:51:30;27.90;;;6.43;;
12429;SDS011;6279;42.192;24.326;2023-02-26T08:53:55;22.63;;;4.73;;
12429;SDS011;6279;42.192;24.326;2023-02-26T08:56:20;18.90;;;3.77;;
12429;SDS011;6279;42.192;24.326;2023-02-26T08:58:46;22.97;;;4.60;;
12429;SDS011;6279;42.192;24.326;2023-02-26T09:01:12;19.93;;;4.63;;
12429;SDS011;6279;42.192;24.326;2023-02-26T09:03:37;11.70;;;4.33;;
12429;SDS011;6279;42.192;24.326;2023-02-26T09:06:02;12.17;;;4.33;;
12429;SDS011;6279;42.192;24.326;2023-02-26T09:08:29;14.63;;;4.33;;
12429;SDS011;6279;42.192;24.326;2023-02-26T09:10:58;25.20;;;5.37;;
12429;SDS011;6279;42.192;24.326;2023-02-26T09:13:25;18.57;;;6.73;;
12429;SDS011;6279;42.192;24.326;2023-02-26T09:15:50;16.47;;;4.67;;
12429;SDS011;6279;42.192;24.326;2023-02-26T09:18:15;17.27;;;5.17;;
12429;SDS011;6279;42.192;24.326;2023-02-26T09:20:41;18.20;;;5.43;;
12429;SDS011;6279;42.192;24.326;2023-02-26T09:23:07;14.10;;;4.23;;
12429;SDS011;6279;42.192;24.326;2023-02-26T09:25:33;17.17;;;5.03;;
12429;SDS011;6279;42.192;24.326;2023-02-26T09:27:58;12.13;;;4.53;;
12429;SDS011;6279;42.192;24.326;2023-02-26T09:30:24;17.80;;;5.00;;
12429;SDS011;6279;42.192;24.326;2023-02-26T09:32:49;19.90;;;6.63;;
12429;SDS011;6279;42.192;24.326;2023-02-26T09:35:14;16.20;;;5.10;;
12429;SDS011;6279;42.192;24.326;2023-02-26T09:37:40;18.90;;;4.50;;
12429;SDS011;6279;42.192;24.326;2023-02-26T09:40:10;25.53;;;8.73;;
12429;SDS011;6279;42.192;24.326;2023-02-26T09:45:37;14.47;;;4.40;;
12429;SDS011;6279;42.192;24.326;2023-02-26T09:48:06;9.77;;;4.27;;
12429;SDS011;6279;42.192;24.326;2023-02-26T09:50:41;11.50;;;3.50;;
12429;SDS011;6279;42.192;24.326;2023-02-26T09:53:30;17.03;;;4.87;;
12429;SDS011;6279;42.192;24.326;2023-02-26T09:56:18;15.50;;;5.00;;
12429;SDS011;6279;42.192;24.326;2023-02-26T09:58:46;12.20;;;4.63;;
12429;SDS011;6279;42.192;24.326;2023-02-26T10:01:17;18.77;;;4.90;;
12429;SDS011;6279;42.192;24.326;2023-02-26T10:04:03;13.40;;;4.07;;
12429;SDS011;6279;42.192;24.326;2023-02-26T10:09:32;20.00;;;6.00;;
12429;SDS011;6279;42.192;24.326;2023-02-26T10:12:02;15.70;;;4.87;;
12429;SDS011;6279;42.192;24.326;2023-02-26T10:19:53;20.40;;;5.07;;
12429;SDS011;6279;42.192;24.326;2023-02-26T10:35:56;15.10;;;4.40;;
12429;SDS011;6279;42.192;24.326;2023-02-26T10:38:28;12.87;;;4.10;;
12429;SDS011;6279;42.192;24.326;2023-02-26T10:43:26;18.87;;;4.17;;
12429;SDS011;6279;42.192;24.326;2023-02-26T10:46:16;24.33;;;5.43;;
12429;SDS011;6279;42.192;24.326;2023-02-26T10:51:53;20.20;;;4.47;;
12429;SDS011;6279;42.192;24.326;2023-02-26T10:54:32;15.47;;;4.07;;
12429;SDS011;6279;42.192;24.326;2023-02-26T10:57:00;17.20;;;4.00;;
12429;SDS011;6279;42.192;24.326;2023-02-26T10:59:26;15.97;;;4.20;;
12429;SDS011;6279;42.192;24.326;2023-02-26T11:01:52;14.50;;;4.73;;
12429;SDS011;6279;42.192;24.326;2023-02-26T11:04:22;11.20;;;4.20;;
12429;SDS011;6279;42.192;24.326;2023-02-26T11:06:52;13.97;;;4.07;;
12429;SDS011;6279;42.192;24.326;2023-02-26T11:12:12;14.93;;;4.47;;
12429;SDS011;6279;42.192;24.326;2023-02-26T11:14:42;16.43;;;4.77;;
12429;SDS011;6279;42.192;24.326;2023-02-26T11:17:12;11.30;;;4.37;;
12429;SDS011;6279;42.192;24.326;2023-02-26T11:19:52;15.87;;;4.30;;
12429;SDS011;6279;42.192;24.326;2023-02-26T11:22:21;15.20;;;4.60;;
12429;SDS011;6279;42.192;24.326;2023-02-26T11:24:50;13.50;;;4.87;;
12429;SDS011;6279;42.192;24.326;2023-02-26T11:27:20;14.70;;;4.53;;
12429;SDS011;6279;42.192;24.326;2023-02-26T11:29:53;12.87;;;3.67;;
12429;SDS011;6279;42.192;24.326;2023-02-26T11:32:22;12.83;;;4.03;;
12429;SDS011;6279;42.192;24.326;2023-02-26T11:34:54;17.17;;;3.90;;
12429;SDS011;6279;42.192;24.326;2023-02-26T11:37:23;12.10;;;4.70;;
12429;SDS011;6279;42.192;24.326;2023-02-26T11:39:56;16.90;;;4.03;;
12429;SDS011;6279;42.192;24.326;2023-02-26T11:42:25;17.33;;;4.10;;
12429;SDS011;6279;42.192;24.326;2023-02-26T11:44:51;11.57;;;3.87;;
12429;SDS011;6279;42.192;24.326;2023-02-26T11:47:22;10.03;;;3.70;;
12429;SDS011;6279;42.192;24.326;2023-02-26T11:49:54;19.00;;;4.60;;
12429;SDS011;6279;42.192;24.326;2023-02-26T11:55:00;14.15;;;3.78;;
12429;SDS011;6279;42.192;24.326;2023-02-26T11:57:29;14.90;;;4.38;;
12429;SDS011;6279;42.192;24.326;2023-02-26T11:59:57;11.97;;;3.67;;
12429;SDS011;6279;42.192;24.326;2023-02-26T12:02:25;14.30;;;4.10;;
12429;SDS011;6279;42.192;24.326;2023-02-26T12:04:56;14.60;;;4.28;;
12429;SDS011;6279;42.192;24.326;2023-02-26T12:07:25;14.67;;;3.63;;
12429;SDS011;6279;42.192;24.326;2023-02-26T12:09:51;18.13;;;3.53;;
12429;SDS011;6279;42.192;24.326;2023-02-26T12:15:08;10.50;;;3.40;;
12429;SDS011;6279;42.192;24.326;2023-02-26T12:23:54;16.60;;;5.07;;
12429;SDS011;6279;42.192;24.326;2023-02-26T12:29:01;14.40;;;3.87;;
12429;SDS011;6279;42.192;24.326;2023-02-26T12:40:07;14.27;;;4.30;;
12429;SDS011;6279;42.192;24.326;2023-02-26T12:56:25;12.77;;;3.67;;
12429;SDS011;6279;42.192;24.326;2023-02-26T13:21:23;9.63;;;2.93;;
12429;SDS011;6279;42.192;24.326;2023-02-26T13:24:01;11.50;;;2.97;;
12429;SDS011;6279;42.192;24.326;2023-02-26T13:26:38;15.07;;;3.57;;
12429;SDS011;6279;42.192;24.326;2023-02-26T13:31:54;13.27;;;3.63;;
12429;SDS011;6279;42.192;24.326;2023-02-26T13:37:32;11.40;;;3.07;;
12429;SDS011;6279;42.192;24.326;2023-02-26T13:40:04;9.23;;;3.00;;
12429;SDS011;6279;42.192;24.326;2023-02-26T13:42:45;16.33;;;3.57;;
12429;SDS011;6279;42.192;24.326;2023-02-26T13:47:58;10.60;;;3.00;;
12429;SDS011;6279;42.192;24.326;2023-02-26T13:53:37;12.10;;;3.40;;
12429;SDS011;6279;42.192;24.326;2023-02-26T13:56:13;9.90;;;3.23;;
12429;SDS011;6279;42.192;24.326;2023-02-26T14:06:52;8.30;;;3.73;;
12429;SDS011;6279;42.192;24.326;2023-02-26T14:09:34;6.37;;;2.87;;
12429;SDS011;6279;42.192;24.326;2023-02-26T14:14:43;7.90;;;2.63;;
12429;SDS011;6279;42.192;24.326;2023-02-26T14:17:41;12.83;;;2.97;;
12429;SDS011;6279;42.192;24.326;2023-02-26T14:20:24;11.80;;;3.87;;
12429;SDS011;6279;42.192;24.326;2023-02-26T14:31:04;13.40;;;3.23;;
12429;SDS011;6279;42.192;24.326;2023-02-26T14:33:31;17.67;;;3.20;;
12429;SDS011;6279;42.192;24.326;2023-02-26T14:36:04;12.73;;;4.00;;
12429;SDS011;6279;42.192;24.326;2023-02-26T14:38:35;7.90;;;2.87;;
12429;SDS011;6279;42.192;24.326;2023-02-26T14:41:07;11.67;;;3.37;;
12429;SDS011;6279;42.192;24.326;2023-02-26T14:43:43;9.00;;;2.97;;
12429;SDS011;6279;42.192;24.326;2023-02-26T14:46:15;12.57;;;4.20;;
12429;SDS011;6279;42.192;24.326;2023-02-26T14:48:41;10.70;;;3.40;;
12429;SDS011;6279;42.192;24.326;2023-02-26T14:51:13;13.93;;;4.60;;
12429;SDS011;6279;42.192;24.326;2023-02-26T14:58:55;12.80;;;4.50;;
12429;SDS011;6279;42.192;24.326;2023-02-26T15:07:06;12.03;;;3.53;;
12429;SDS011;6279;42.192;24.326;2023-02-26T15:12:54;9.47;;;4.23;;
12429;SDS011;6279;42.192;24.326;2023-02-26T15:26:44;10.67;;;4.43;;
12429;SDS011;6279;42.192;24.326;2023-02-26T15:29:02;10.00;;;3.83;;
12429;SDS011;6279;42.192;24.326;2023-02-26T15:31:41;16.10;;;8.60;;
12429;SDS011;6279;42.192;24.326;2023-02-26T15:34:27;21.53;;;10.10;;
12429;SDS011;6279;42.192;24.326;2023-02-26T15:36:55;15.80;;;4.50;;
12429;SDS011;6279;42.192;24.326;2023-02-26T15:39:22;9.30;;;4.57;;
12429;SDS011;6279;42.192;24.326;2023-02-26T15:41:49;13.63;;;5.80;;
12429;SDS011;6279;42.192;24.326;2023-02-26T15:44:20;8.87;;;3.73;;
12429;SDS011;6279;42.192;24.326;2023-02-26T15:46:52;7.67;;;2.77;;
12429;SDS011;6279;42.192;24.326;2023-02-26T15:49:25;16.33;;;5.67;;
12429;SDS011;6279;42.192;24.326;2023-02-26T15:51:58;14.20;;;4.83;;
12429;SDS011;6279;42.192;24.326;2023-02-26T15:54:27;10.53;;;3.27;;
12429;SDS011;6279;42.192;24.326;2023-02-26T15:57:05;9.60;;;4.57;;
12429;SDS011;6279;42.192;24.326;2023-02-26T15:59:33;23.40;;;11.37;;
12429;SDS011;6279;42.192;24.326;2023-02-26T16:02:09;12.50;;;4.67;;
12429;SDS011;6279;42.192;24.326;2023-02-26T16:04:37;8.57;;;3.40;;
12429;SDS011;6279;42.192;24.326;2023-02-26T16:07:03;14.03;;;6.87;;
12429;SDS011;6279;42.192;24.326;2023-02-26T16:09:32;9.90;;;4.10;;
12429;SDS011;6279;42.192;24.326;2023-02-26T16:12:00;10.77;;;4.20;;
12429;SDS011;6279;42.192;24.326;2023-02-26T16:14:40;8.90;;;4.13;;
12429;SDS011;6279;42.192;24.326;2023-02-26T16:17:11;12.00;;;4.33;;
12429;SDS011;6279;42.192;24.326;2023-02-26T16:19:43;14.23;;;4.13;;
12429;SDS011;6279;42.192;24.326;2023-02-26T16:24:58;5.53;;;2.50;;
12429;SDS011;6279;42.192;24.326;2023-02-26T16:27:27;11.97;;;3.37;;
12429;SDS011;6279;42.192;24.326;2023-02-26T16:29:55;9.90;;;3.63;;
12429;SDS011;6279;42.192;24.326;2023-02-26T16:32:23;12.43;;;4.13;;
12429;SDS011;6279;42.192;24.326;2023-02-26T16:34:54;13.70;;;4.23;;
12429;SDS011;6279;42.192;24.326;2023-02-26T16:37:23;10.20;;;3.17;;
12429;SDS011;6279;42.192;24.326;2023-02-26T16:42:45;10.40;;;4.17;;
12429;SDS011;6279;42.192;24.326;2023-02-26T16:47:51;10.40;;;4.10;;
12429;SDS011;6279;42.192;24.326;2023-02-26T16:50:20;24.23;;;5.40;;
12429;SDS011;6279;42.192;24.326;2023-02-26T16:55:53;11.70;;;4.73;;
12429;SDS011;6279;42.192;24.326;2023-02-26T16:58:20;9.43;;;4.50;;
12429;SDS011;6279;42.192;24.326;2023-02-26T17:00:50;10.20;;;4.07;;
12429;SDS011;6279;42.192;24.326;2023-02-26T17:03:28;14.73;;;5.47;;
12429;SDS011;6279;42.192;24.326;2023-02-26T17:08:41;10.37;;;3.90;;
12429;SDS011;6279;42.192;24.326;2023-02-26T17:11:21;10.40;;;3.93;;
12429;SDS011;6279;42.192;24.326;2023-02-26T17:14:01;12.60;;;4.17;;
12429;SDS011;6279;42.192;24.326;2023-02-26T17:16:31;11.67;;;4.70;;
12429;SDS011;6279;42.192;24.326;2023-02-26T17:18:56;15.30;;;7.80;;
12429;SDS011;6279;42.192;24.326;2023-02-26T17:21:21;9.60;;;3.87;;
12429;SDS011;6279;42.192;24.326;2023-02-26T17:23:47;10.27;;;3.30;;
12429;SDS011;6279;42.192;24.326;2023-02-26T17:26:12;7.80;;;3.43;;
12429;SDS011;6279;42.192;24.326;2023-02-26T17:28:39;9.20;;;3.73;;
12429;SDS011;6279;42.192;24.326;2023-02-26T17:31:06;11.67;;;4.40;;
12429;SDS011;6279;42.192;24.326;2023-02-26T17:33:33;21.33;;;11.20;;
12429;SDS011;6279;42.192;24.326;2023-02-26T17:36:02;8.00;;;3.23;;
12429;SDS011;6279;42.192;24.326;2023-02-26T17:38:28;13.77;;;6.37;;
12429;SDS011;6279;42.192;24.326;2023-02-26T17:40:59;13.97;;;4.90;;
12429;SDS011;6279;42.192;24.326;2023-02-26T17:43:29;9.60;;;4.60;;
12429;SDS011;6279;42.192;24.326;2023-02-26T17:46:00;8.10;;;3.97;;
12429;SDS011;6279;42.192;24.326;2023-02-26T17:48:28;12.03;;;4.80;;
12429;SDS011;6279;42.192;24.326;2023-02-26T17:51:07;16.07;;;6.50;;
12429;SDS011;6279;42.192;24.326;2023-02-26T17:53:37;14.30;;;4.73;;
12429;SDS011;6279;42.192;24.326;2023-02-26T17:56:41;11.43;;;4.77;;
12429;SDS011;6279;42.192;24.326;2023-02-26T17:59:50;14.10;;;4.70;;
12429;SDS011;6279;42.192;24.326;2023-02-26T18:02:26;15.83;;;5.00;;
12429;SDS011;6279;42.192;24.326;2023-02-26T18:04:59;10.93;;;3.67;;
12429;SDS011;6279;42.192;24.326;2023-02-26T18:07:25;15.17;;;4.93;;
12429;SDS011;6279;42.192;24.326;2023-02-26T18:09:51;12.27;;;4.57;;
12429;SDS011;6279;42.192;24.326;2023-02-26T18:12:17;8.50;;;3.07;;
12429;SDS011;6279;42.192;24.326;2023-02-26T18:14:45;11.60;;;3.67;;
12429;SDS011;6279;42.192;24.326;2023-02-26T18:17:15;11.33;;;3.60;;
12429;SDS011;6279;42.192;24.326;2023-02-26T18:19:43;14.70;;;5.00;;
12429;SDS011;6279;42.192;24.326;2023-02-26T18:22:17;20.30;;;4.30;;
12429;SDS011;6279;42.192;24.326;2023-02-26T18:24:44;20.03;;;4.80;;
12429;SDS011;6279;42.192;24.326;2023-02-26T18:27:13;14.37;;;4.90;;
12429;SDS011;6279;42.192;24.326;2023-02-26T18:29:40;12.33;;;4.03;;